Time;durP1;ratioP1;P1;durP2;ratioP2;P2;SDS_P1;SDS_P2;PMS_P1;PMS_P2;Temp;Humidity;BMP_temperature;BMP_pressure;BME280_temperature;BME280_humidity;BME280_pressure;Samples;Min_cycle;Max_cycle;Signal;HPM_P1;HPM_P2
2020/12/09 00:00:16;;;;;;;99.10;45.97;;;;;;;-0.10;79.98;99825.91;126545;1098;23332;-56
2020/12/09 00:02:58;;;;;;;94.50;44.93;;;;;;;-0.15;80.20;99823.66;126434;1098;23372;-57
2020/12/09 00:05:28;;;;;;;100.97;44.83;;;;;;;-0.16;80.04;99828.36;126432;1098;26299;-53
2020/12/09 00:07:57;;;;;;;95.27;44.03;;;;;;;-0.16;80.72;99838.55;126552;1098;23307;-53
2020/12/09 00:10:27;;;;;;;99.90;45.55;;;;;;;-0.17;80.88;99831.52;126671;1100;23451;-56
2020/12/09 00:12:56;;;;;;;91.47;43.42;;;;;;;-0.17;79.96;99823.30;126271;1098;23343;-56
2020/12/09 00:15:26;;;;;;;101.87;46.93;;;;;;;-0.22;80.00;99829.23;126470;1098;23389;-57
2020/12/09 00:17:55;;;;;;;99.97;46.77;;;;;;;-0.23;81.00;99835.93;126160;1098;23484;-58
2020/12/09 00:20:26;;;;;;;100.67;44.67;;;;;;;-0.21;80.30;99842.53;126142;1098;25339;-58
2020/12/09 00:22:55;;;;;;;95.32;44.63;;;;;;;-0.20;80.85;99829.59;126496;1099;26795;-57
2020/12/09 00:25:24;;;;;;;95.23;45.47;;;;;;;-0.20;80.68;99832.34;126421;1098;23385;-59
2020/12/09 00:27:53;;;;;;;99.33;43.20;;;;;;;-0.19;81.12;99844.88;126445;1098;23389;-59
2020/12/09 00:30:22;;;;;;;99.23;43.03;;;;;;;-0.23;80.76;99846.91;126546;1093;23380;-55
2020/12/09 00:32:52;;;;;;;106.52;43.17;;;;;;;-0.25;81.04;99849.29;126699;1100;23518;-55
2020/12/09 00:35:21;;;;;;;90.05;42.15;;;;;;;-0.23;81.15;99844.91;126400;1098;23788;-57
2020/12/09 00:37:50;;;;;;;97.70;43.10;;;;;;;-0.24;80.49;99845.34;126436;1100;23440;-58
2020/12/09 00:40:20;;;;;;;101.10;43.63;;;;;;;-0.24;80.93;99832.41;126457;1099;23386;-56
2020/12/09 00:42:50;;;;;;;88.10;39.13;;;;;;;-0.25;81.32;99838.31;126618;1098;23389;-61
2020/12/09 00:45:19;;;;;;;91.00;42.45;;;;;;;-0.26;80.95;99851.25;126508;1098;23388;-57
2020/12/09 00:47:48;;;;;;;97.70;42.70;;;;;;;-0.28;81.36;99845.41;126412;1098;23319;-61
2020/12/09 00:50:30;;;;;;;89.53;38.87;;;;;;;-0.26;80.53;99851.25;126495;1099;23323;-55
2020/12/09 00:53:00;;;;;;;84.53;41.27;;;;;;;-0.23;80.44;99855.89;126476;1098;23419;-57
2020/12/09 00:55:29;;;;;;;97.42;41.58;;;;;;;-0.21;80.67;99850.76;126563;1098;23424;-55
2020/12/09 00:57:59;;;;;;;89.33;39.50;;;;;;;-0.18;80.95;99857.39;126570;1093;23344;-56
2020/12/09 01:00:28;;;;;;;85.90;41.40;;;;;;;-0.19;80.91;99847.63;126601;1098;23331;-55
2020/12/09 01:02:58;;;;;;;92.53;39.40;;;;;;;-0.19;80.99;99853.11;126463;1098;23382;-55
2020/12/09 01:05:27;;;;;;;97.37;41.15;;;;;;;-0.21;80.56;99842.53;126519;1098;23331;-59
2020/12/09 01:07:57;;;;;;;91.43;41.50;;;;;;;-0.21;80.90;99842.53;126406;1099;23390;-55
2020/12/09 01:10:26;;;;;;;89.92;40.88;;;;;;;-0.22;80.65;99845.70;126540;1094;23604;-57
2020/12/09 01:12:55;;;;;;;87.33;39.67;;;;;;;-0.24;80.60;99831.63;126481;1098;28302;-56
2020/12/09 01:15:26;;;;;;;88.90;40.67;;;;;;;-0.27;80.59;99832.47;126722;1098;25031;-58
2020/12/09 01:17:56;;;;;;;88.30;39.70;;;;;;;-0.29;81.03;99827.38;126481;1100;23340;-57
2020/12/09 01:20:25;;;;;;;93.97;40.87;;;;;;;-0.27;81.25;99835.22;126455;1098;23384;-56
2020/12/09 01:22:54;;;;;;;84.23;39.93;;;;;;;-0.27;80.40;99832.47;126428;1098;23324;-56
2020/12/09 01:25:23;;;;;;;91.43;39.53;;;;;;;-0.29;81.18;99819.15;126455;1098;23533;-58
2020/12/09 01:27:54;;;;;;;90.63;39.73;;;;;;;-0.26;80.69;99831.27;126619;1100;23396;-56
2020/12/09 01:30:22;;;;;;;;;;;;;;;-0.26;80.80;99823.03;126584;1098;27554;-56
2020/12/09 01:32:52;;;;;;;89.63;40.87;;;;;;;-0.25;80.49;99830.84;126610;1098;21502;-57
2020/12/09 01:35:21;;;;;;;79.58;38.30;;;;;;;-0.25;81.16;99830.09;126685;1099;23338;-58
2020/12/09 01:37:52;;;;;;;85.67;39.13;;;;;;;-0.27;80.79;99824.99;126422;1098;23383;-56
2020/12/09 01:40:20;;;;;;;;;;;;;;;-0.26;81.53;99829.30;126435;1098;29364;-57
2020/12/09 01:42:51;;;;;;;88.80;39.20;;;;;;;-0.25;80.94;99839.06;126675;1098;21512;-57
2020/12/09 01:45:20;;;;;;;95.37;42.37;;;;;;;-0.24;80.91;99837.11;126456;1098;23786;-55
2020/12/09 01:47:51;;;;;;;88.47;38.10;;;;;;;-0.22;81.23;99849.22;126523;1098;23521;-59
2020/12/09 01:50:25;;;;;;;90.15;39.90;;;;;;;-0.20;81.14;99846.84;126604;1098;28135;-56
2020/12/09 01:52:54;;;;;;;86.60;41.10;;;;;;;-0.14;81.80;99852.62;126437;1098;26836;-58
2020/12/09 01:55:24;;;;;;;91.63;40.25;;;;;;;-0.12;81.54;99847.49;126569;1098;23396;-56
2020/12/09 01:57:53;;;;;;;95.13;41.00;;;;;;;-0.12;81.76;99851.02;126469;1098;23335;-56
2020/12/09 02:00:23;;;;;;;95.73;39.87;;;;;;;-0.09;81.33;99847.45;126572;1098;23386;-55
2020/12/09 02:02:52;;;;;;;88.93;40.70;;;;;;;-0.04;81.43;99840.70;126322;1098;24859;-55
2020/12/09 02:05:21;;;;;;;79.27;37.60;;;;;;;-0.02;81.84;99835.56;126516;1098;23342;-57
2020/12/09 02:07:51;;;;;;;81.67;37.37;;;;;;;-0.01;81.63;99834.39;126467;1100;23393;-56
2020/12/09 02:10:22;;;;;;;84.07;37.07;;;;;;;0.02;81.91;99832.78;126466;1098;23332;-59
2020/12/09 02:12:51;;;;;;;79.47;35.90;;;;;;;0.03;81.60;99835.10;126543;1098;23307;-58
2020/12/09 02:15:21;;;;;;;87.17;36.00;;;;;;;0.03;82.01;99831.58;126472;1093;23385;-56
2020/12/09 02:17:50;;;;;;;86.60;36.80;;;;;;;0.05;81.45;99829.97;126593;1098;23536;-58
2020/12/09 02:20:19;;;;;;;80.87;32.40;;;;;;;0.08;81.57;99820.91;126470;1099;27125;-55
2020/12/09 02:22:54;;;;;;;74.07;31.67;;;;;;;0.11;81.84;99817.31;126691;1098;28129;-57
2020/12/09 02:25:23;;;;;;;91.47;33.87;;;;;;;0.12;81.86;99816.14;126461;1098;23382;-55
2020/12/09 02:27:53;;;;;;;83.27;33.13;;;;;;;0.12;81.69;99816.14;126440;1098;23307;-57
2020/12/09 02:30:23;;;;;;;86.53;32.87;;;;;;;0.14;81.91;99829.44;126452;1099;24340;-56
2020/12/09 02:32:52;;;;;;;81.02;33.80;;;;;;;0.13;81.82;99839.63;126462;1099;27130;-56
2020/12/09 02:35:21;;;;;;;77.73;32.93;;;;;;;0.13;81.81;99847.86;126436;1098;23386;-56
2020/12/09 02:37:53;;;;;;;78.30;33.60;;;;;;;0.14;82.26;99849.43;126376;1098;23386;-55
2020/12/09 02:40:23;;;;;;;78.43;31.27;;;;;;;0.21;82.21;99849.30;126511;1099;23377;-57
2020/12/09 02:42:52;;;;;;;79.83;30.47;;;;;;;0.23;81.97;99840.66;126505;1098;26104;-57
2020/12/09 02:45:23;;;;;;;79.53;31.73;;;;;;;0.24;82.26;99837.48;126476;1098;23325;-55
2020/12/09 02:47:52;;;;;;;86.00;31.45;;;;;;;0.26;82.59;99829.61;126573;1100;23346;-57
2020/12/09 02:50:22;;;;;;;83.33;30.60;;;;;;;0.26;82.38;99826.86;126509;1098;23317;-59
2020/12/09 02:52:51;;;;;;;79.00;32.13;;;;;;;0.30;82.56;99833.06;126576;1099;26850;-58
2020/12/09 02:55:21;;;;;;;78.97;32.05;;;;;;;0.33;81.88;99834.95;126478;1099;23385;-56
2020/12/09 02:57:51;;;;;;;80.40;30.40;;;;;;;0.31;82.61;99842.08;126558;1098;23315;-55
2020/12/09 03:00:20;;;;;;;88.17;31.30;;;;;;;0.31;81.88;99840.09;126690;1098;23442;-57
2020/12/09 03:02:50;;;;;;;74.83;29.03;;;;;;;0.31;82.28;99844.83;126396;1098;26801;-55
2020/12/09 03:05:19;;;;;;;83.33;30.90;;;;;;;0.26;81.87;99846.08;126496;1100;23397;-55
2020/12/09 03:07:48;;;;;;;76.97;30.43;;;;;;;0.27;82.54;99842.13;126423;1098;27853;-61
2020/12/09 03:10:17;;;;;;;81.37;31.07;;;;;;;0.32;82.62;99838.91;126455;1094;23348;-59
2020/12/09 03:12:47;;;;;;;77.60;28.63;;;;;;;0.34;82.90;99831.02;126397;1099;26143;-58
2020/12/09 03:15:17;;;;;;;66.77;26.83;;;;;;;0.37;83.03;99830.20;128861;1098;23398;-53
2020/12/09 03:17:47;;;;;;;78.10;28.35;;;;;;;0.39;82.67;99830.55;126439;1098;28247;-54
2020/12/09 03:20:16;;;;;;;76.27;29.10;;;;;;;0.40;82.06;99821.11;126378;1099;23786;-56
2020/12/09 03:22:46;;;;;;;79.50;28.53;;;;;;;0.39;82.83;99840.75;126619;1098;23382;-55
2020/12/09 03:25:15;;;;;;;76.00;28.83;;;;;;;0.38;82.78;99845.47;126425;1098;23331;-57
2020/12/09 03:27:44;;;;;;;72.90;29.03;;;;;;;0.38;82.21;99847.42;126565;1098;25093;-56
2020/12/09 03:30:14;;;;;;;71.83;29.97;;;;;;;0.38;83.06;99856.45;126612;1100;23342;-56
2020/12/09 03:32:43;;;;;;;74.47;32.47;;;;;;;0.41;82.88;99858.37;126427;1098;27973;-58
2020/12/09 03:35:12;;;;;;;77.63;28.30;;;;;;;0.42;83.09;99856.37;126393;1098;23427;-56
2020/12/09 03:37:42;;;;;;;77.03;27.50;;;;;;;0.41;82.49;99850.13;126413;1100;23453;-54
2020/12/09 03:40:11;;;;;;;77.67;27.82;;;;;;;0.43;83.04;99850.48;126674;1098;23386;-55
2020/12/09 03:42:41;;;;;;;72.83;27.97;;;;;;;0.42;83.25;99848.14;126493;1098;23331;-57
2020/12/09 03:45:11;;;;;;;76.37;28.30;;;;;;;0.45;83.24;99847.31;126433;1098;23331;-57
2020/12/09 03:47:40;;;;;;;71.27;27.57;;;;;;;0.48;82.80;99841.75;126395;1100;23379;-54
2020/12/09 03:50:09;;;;;;;72.50;27.83;;;;;;;0.51;82.96;99848.37;126637;1098;23398;-57
2020/12/09 03:52:39;;;;;;;67.43;27.47;;;;;;;0.54;83.19;99842.02;126699;1098;23331;-57
2020/12/09 03:55:08;;;;;;;71.57;24.80;;;;;;;0.56;82.72;99845.16;126509;1098;23362;-55
2020/12/09 03:57:37;;;;;;;77.23;28.30;;;;;;;0.57;83.30;99836.48;126434;1100;24958;-58
2020/12/09 04:00:07;;;;;;;73.47;24.73;;;;;;;0.56;82.56;99834.92;126512;1098;23382;-54
2020/12/09 04:02:37;;;;;;;72.77;27.20;;;;;;;0.56;82.59;99840.41;126559;1098;23332;-57
2020/12/09 04:05:06;;;;;;;69.50;27.37;;;;;;;0.58;83.06;99854.50;126525;1098;23343;-56
2020/12/09 04:07:35;;;;;;;68.45;26.70;;;;;;;0.60;82.64;99862.34;126868;1098;25371;-54
2020/12/09 04:10:05;;;;;;;72.57;25.30;;;;;;;0.60;82.88;99868.59;126459;1098;24997;-56
2020/12/09 04:12:35;;;;;;;72.80;26.42;;;;;;;0.60;83.10;99854.86;126604;1099;27843;-56
2020/12/09 04:15:05;;;;;;;77.77;28.33;;;;;;;0.63;83.23;99861.48;126492;1098;23335;-56
2020/12/09 04:17:33;;;;;;;;;;;;;;;0.61;82.89;99864.66;126480;1100;25953;-54
2020/12/09 04:20:03;;;;;;;79.60;27.35;;;;;;;0.60;83.03;99865.84;126379;1099;24247;-57
2020/12/09 04:22:34;;;;;;;77.12;28.45;;;;;;;0.59;83.10;99871.77;126496;1098;23427;-58
2020/12/09 04:25:06;;;;;;;70.67;26.40;;;;;;;0.57;82.82;99880.43;126460;1099;23334;-57
2020/12/09 04:27:35;;;;;;;76.43;28.10;;;;;;;0.59;83.69;99878.04;126390;1098;23473;-54
2020/12/09 04:30:05;;;;;;;65.63;26.67;;;;;;;0.61;83.05;99878.39;126463;1099;23382;-60
2020/12/09 04:32:35;;;;;;;72.00;25.88;;;;;;;0.62;83.50;99868.94;126609;1099;27771;-57
2020/12/09 04:35:05;;;;;;;68.70;22.80;;;;;;;0.64;82.97;99852.81;126531;1098;23364;-57
2020/12/09 04:37:36;;;;;;;79.40;28.60;;;;;;;0.63;83.68;99847.75;126473;1098;23357;-56
2020/12/09 04:40:06;;;;;;;70.20;26.37;;;;;;;0.64;83.54;99846.56;126640;1099;23332;-57
2020/12/09 04:42:35;;;;;;;76.07;27.48;;;;;;;0.67;83.45;99845.70;126565;1098;26366;-57
2020/12/09 04:45:05;;;;;;;63.50;25.47;;;;;;;0.71;83.84;99855.44;126595;1098;23407;-56
2020/12/09 04:47:46;;;;;;;67.35;25.00;;;;;;;0.73;83.13;99855.01;126655;1098;23550;-57
2020/12/09 04:50:15;;;;;;;69.75;27.85;;;;;;;0.74;83.57;99851.86;126569;1100;23386;-58
2020/12/09 04:52:47;;;;;;;78.93;27.73;;;;;;;0.77;83.08;99851.00;126459;1098;23385;-55
2020/12/09 04:55:17;;;;;;;80.97;29.20;;;;;;;0.80;83.42;99871.37;126507;1098;25029;-54
2020/12/09 04:58:19;;;;;;;76.70;27.65;;;;;;;0.81;83.50;99856.42;126403;1099;23333;-55
2020/12/09 05:01:00;;;;;;;69.13;25.57;;;;;;;0.82;83.10;99857.98;126578;1098;23325;-60
2020/12/09 05:03:42;;;;;;;64.43;26.13;;;;;;;0.81;83.04;99848.95;126558;1098;23342;-58
2020/12/09 05:06:13;;;;;;;63.37;24.97;;;;;;;0.83;83.67;99852.06;126620;1098;25213;-56
2020/12/09 05:08:49;;;;;;;64.17;25.60;;;;;;;0.82;83.10;99846.98;126483;1100;23334;-57
2020/12/09 05:11:23;;;;;;;69.77;23.80;;;;;;;0.81;83.52;99854.45;126402;1098;23351;-57
2020/12/09 05:13:54;;;;;;;68.20;25.03;;;;;;;0.81;83.61;99850.92;126303;1099;27522;-57
2020/12/09 05:16:25;;;;;;;72.03;27.17;;;;;;;0.82;83.42;99852.48;126279;1098;23386;-59
2020/12/09 05:18:58;;;;;;;76.00;29.55;;;;;;;0.83;83.62;99857.55;126499;1098;23331;-58
2020/12/09 05:21:27;;;;;;;93.83;44.50;;;;;;;0.86;83.27;99861.44;126286;1098;23312;-58
2020/12/09 05:23:59;;;;;;;103.50;57.43;;;;;;;0.86;83.75;99864.19;126408;1099;25187;-57
2020/12/09 05:26:30;;;;;;;81.90;42.00;;;;;;;0.87;83.92;99867.71;126513;1098;23395;-58
2020/12/09 05:29:08;;;;;;;83.70;40.50;;;;;;;0.84;83.31;99863.83;126226;1098;26833;-57
2020/12/09 05:31:39;;;;;;;76.95;36.00;;;;;;;0.84;83.62;99869.33;126369;1098;23388;-55
2020/12/09 05:34:29;;;;;;;76.10;32.70;;;;;;;0.83;83.79;99869.75;126353;1098;23495;-56
2020/12/09 05:37:00;;;;;;;99.00;39.20;;;;;;;0.85;83.35;99881.10;126080;1100;23335;-57
2020/12/09 05:39:30;;;;;;;91.97;35.13;;;;;;;0.86;83.71;99890.88;126364;1098;23398;-58
2020/12/09 05:42:13;;;;;;;79.97;32.05;;;;;;;0.90;83.37;99888.84;126288;1098;23350;-60
2020/12/09 05:44:44;;;;;;;75.57;29.67;;;;;;;0.94;83.36;99886.80;126372;1098;27743;-58
2020/12/09 05:47:14;;;;;;;82.77;32.80;;;;;;;0.97;83.39;99891.45;126737;1098;26836;-55
2020/12/09 05:49:43;;;;;;;81.67;32.60;;;;;;;0.98;83.45;99895.74;126523;1098;26856;-57
2020/12/09 05:52:15;;;;;;;78.80;27.95;;;;;;;0.97;83.67;99905.20;126468;1098;23328;-57
2020/12/09 05:54:46;;;;;;;79.23;30.70;;;;;;;0.96;83.91;99898.14;126399;1098;23418;-60
2020/12/09 05:57:17;;;;;;;87.60;31.90;;;;;;;0.98;84.02;99899.27;126441;1098;23325;-58
2020/12/09 05:59:48;;;;;;;80.95;31.80;;;;;;;0.98;84.02;99899.27;126407;1098;23507;-58
2020/12/09 06:02:19;;;;;;;73.80;26.97;;;;;;;0.99;83.39;99900.84;126369;1098;23344;-58
2020/12/09 06:04:54;;;;;;;61.50;24.63;;;;;;;0.96;83.77;99892.64;129011;1098;23405;-57
2020/12/09 06:07:24;;;;;;;66.30;25.37;;;;;;;0.96;83.64;99898.92;127426;1099;23331;-58
2020/12/09 06:10:12;;;;;;;65.03;24.47;;;;;;;0.99;83.78;99902.80;126414;1098;23538;-58
2020/12/09 06:12:53;;;;;;;63.60;24.73;;;;;;;1.01;84.08;99911.41;126677;1098;23423;-58
2020/12/09 06:15:25;;;;;;;65.27;24.37;;;;;;;1.01;83.60;99914.16;126457;1098;24810;-58
2020/12/09 06:18:05;;;;;;;71.47;28.57;;;;;;;1.03;83.65;99922.75;126328;1098;23343;-57
2020/12/09 06:20:36;;;;;;;62.83;25.83;;;;;;;1.05;83.55;99925.85;126357;1099;23335;-56
2020/12/09 06:23:11;;;;;;;62.73;24.23;;;;;;;1.07;83.59;99935.23;126301;1098;26437;-60
2020/12/09 06:25:42;;;;;;;61.20;24.85;;;;;;;1.10;83.72;99933.59;126309;1100;23348;-57
2020/12/09 06:28:11;;;;;;;;;;;;;;;1.13;83.64;99924.52;126383;1098;23318;-55
2020/12/09 06:30:40;;;;;;;58.17;23.97;;;;;;;1.13;83.43;99939.05;126600;1093;21505;-58
2020/12/09 06:33:12;;;;;;;65.25;22.82;;;;;;;1.10;84.00;99934.38;126243;1098;23537;-60
2020/12/09 06:35:41;;;;;;;;;;;;;;;1.11;83.62;99940.66;126074;1098;26536;-59
2020/12/09 06:38:18;;;;;;;71.70;24.95;;;;;;;1.11;83.39;99929.66;126566;1098;21545;-58
2020/12/09 06:41:12;;;;;;;79.90;30.73;;;;;;;1.13;83.73;99938.27;126408;1098;23472;-58
2020/12/09 06:44:03;;;;;;;64.53;24.07;;;;;;;1.15;84.14;99922.11;126118;1098;23345;-60
2020/12/09 06:46:47;;;;;;;60.67;25.03;;;;;;;1.13;84.01;99936.30;127490;1098;23327;-59
2020/12/09 06:49:40;;;;;;;56.80;25.00;;;;;;;1.14;83.53;99929.58;126135;1098;23327;-58
2020/12/09 06:52:36;;;;;;;57.20;23.53;;;;;;;1.17;84.09;99931.50;126684;1100;23620;-60
2020/12/09 06:55:08;;;;;;;60.07;24.50;;;;;;;1.20;84.03;99940.87;127094;1098;23331;-59
2020/12/09 06:57:40;;;;;;;71.70;27.67;;;;;;;1.20;83.49;99927.13;126209;1098;23331;-60
2020/12/09 07:00:23;;;;;;;62.60;25.53;;;;;;;1.22;84.17;99932.98;126376;1098;23331;-59
2020/12/09 07:02:55;;;;;;;66.90;22.67;;;;;;;1.22;83.69;99938.48;126151;1098;23352;-58
2020/12/09 07:05:30;;;;;;;51.27;21.90;;;;;;;1.20;83.79;99943.62;126404;1098;23389;-60
2020/12/09 07:08:05;;;;;;;54.37;20.40;;;;;;;1.19;84.04;99953.06;126300;1098;23319;-60
2020/12/09 07:10:35;;;;;;;56.97;24.93;;;;;;;1.22;84.26;99941.23;126319;1100;23442;-60
2020/12/09 07:13:12;;;;;;;66.35;26.62;;;;;;;1.24;84.04;99949.84;126103;1098;23386;-60
2020/12/09 07:15:45;;;;;;;73.77;28.67;;;;;;;1.23;84.07;99942.77;126089;1099;23462;-60
2020/12/09 07:18:16;;;;;;;66.90;25.73;;;;;;;1.25;84.29;99951.38;126288;1098;23498;-60
2020/12/09 07:20:48;;;;;;;62.85;23.10;;;;;;;1.25;84.17;99951.38;125897;1100;26333;-60
2020/12/09 07:23:18;;;;;;;66.17;24.73;;;;;;;1.27;83.96;99966.25;126238;1098;27859;-58
2020/12/09 07:25:48;;;;;;;55.38;21.87;;;;;;;1.28;84.10;99950.53;126350;1098;23368;-56
2020/12/09 07:28:17;;;;;;;57.47;22.83;;;;;;;1.30;84.26;99954.42;126456;1098;23406;-59
2020/12/09 07:30:47;;;;;;;55.60;21.13;;;;;;;1.33;83.93;99955.53;126419;1100;23402;-59
2020/12/09 07:33:23;;;;;;;49.43;21.30;;;;;;;1.34;83.62;99959.84;126054;1099;23382;-59
2020/12/09 07:36:00;;;;;;;58.50;23.03;;;;;;;1.34;83.72;99952.38;126214;1098;27806;-59
2020/12/09 07:38:29;;;;;;;57.95;22.50;;;;;;;1.35;83.53;99951.16;126282;1098;25857;-60
2020/12/09 07:41:02;;;;;;;69.60;26.37;;;;;;;1.37;83.86;99958.98;125997;1098;23363;-60
2020/12/09 07:43:33;;;;;;;66.43;25.30;;;;;;;1.37;83.67;99956.23;126192;1098;25035;-61
2020/12/09 07:46:06;;;;;;;83.77;33.20;;;;;;;1.37;83.42;99954.27;126218;1098;23393;-60
2020/12/09 07:48:37;;;;;;;99.45;40.90;;;;;;;1.41;84.04;99957.72;126500;1098;23349;-58
2020/12/09 07:51:07;;;;;;;106.13;47.00;;;;;;;1.42;84.07;99970.28;126273;1098;25044;-60
2020/12/09 07:53:36;;;;;;;97.90;41.03;;;;;;;1.44;83.79;99973.38;126455;1099;25034;-59
2020/12/09 07:56:07;;;;;;;82.47;32.53;;;;;;;1.44;83.34;99967.88;126272;1098;24982;-59
2020/12/09 07:58:35;;;;;;;;;;;;;;;1.44;83.34;99976.14;126073;1098;23398;-60
2020/12/09 08:01:04;;;;;;;88.83;35.20;;;;;;;1.44;83.50;99978.89;126146;1098;21506;-58
2020/12/09 08:03:33;;;;;;;79.23;31.97;;;;;;;1.47;83.34;99979.99;126381;1100;23750;-58
2020/12/09 08:06:03;;;;;;;103.60;43.87;;;;;;;1.47;83.98;99985.49;125872;1098;23385;-59
2020/12/09 08:08:35;;;;;;;80.90;34.60;;;;;;;1.49;83.49;99992.13;126189;1099;27907;-60
2020/12/09 08:11:10;;;;;;;74.17;32.67;;;;;;;1.53;84.00;99995.58;126306;1098;24876;-61
2020/12/09 08:13:39;;;;;;;87.27;39.90;;;;;;;1.55;83.42;99997.93;126252;1100;27840;-57
2020/12/09 08:16:11;;;;;;;69.75;30.00;;;;;;;1.57;83.50;100001.03;126291;1099;23936;-59
2020/12/09 08:18:41;;;;;;;66.30;27.70;;;;;;;1.58;83.80;99997.85;126696;1098;23350;-59
2020/12/09 08:21:11;;;;;;;62.43;25.77;;;;;;;1.63;83.84;100000.09;126326;1098;23307;-58
2020/12/09 08:23:42;;;;;;;57.33;21.93;;;;;;;1.63;83.75;100002.84;126297;1099;23357;-58
2020/12/09 08:26:13;;;;;;;50.70;21.33;;;;;;;1.66;83.42;100003.97;126631;1098;23385;-58
2020/12/09 08:28:47;;;;;;;51.33;21.07;;;;;;;1.71;83.78;100003.48;126450;1100;23312;-59
2020/12/09 08:31:22;;;;;;;51.63;21.93;;;;;;;1.72;83.78;100007.02;126533;1099;23425;-58
2020/12/09 08:33:52;;;;;;;53.50;23.67;;;;;;;1.70;83.21;100003.92;126214;1100;23457;-57
2020/12/09 08:36:23;;;;;;;59.33;26.17;;;;;;;1.72;83.33;100012.53;126583;1099;23486;-59
2020/12/09 08:38:59;;;;;;;55.40;22.97;;;;;;;1.75;83.78;100017.16;126667;1098;25033;-59
2020/12/09 08:41:30;;;;;;;54.40;22.43;;;;;;;1.75;83.55;100012.45;126698;1099;23536;-59
2020/12/09 08:44:01;;;;;;;54.23;22.30;;;;;;;1.76;83.45;100005.72;126352;1098;27978;-58
2020/12/09 08:46:35;;;;;;;47.50;20.10;;;;;;;1.81;83.57;100012.71;126351;1098;23331;-58
2020/12/09 08:49:06;;;;;;;50.27;22.97;;;;;;;1.81;83.30;100007.20;126191;1098;23327;-58
2020/12/09 08:51:39;;;;;;;51.90;23.90;;;;;;;1.82;83.15;100006.77;126310;1098;24968;-58
2020/12/09 08:54:10;;;;;;;50.07;23.43;;;;;;;1.82;83.22;100001.27;126339;1099;23385;-60
2020/12/09 08:56:40;;;;;;;52.27;21.33;;;;;;;1.82;83.27;100003.27;126369;1098;23331;-57
2020/12/09 08:59:11;;;;;;;57.58;22.67;;;;;;;1.81;83.08;100005.23;126450;1099;26309;-58
2020/12/09 09:01:41;;;;;;;53.63;22.57;;;;;;;1.82;83.29;100000.52;126921;1098;23789;-58
2020/12/09 09:04:13;;;;;;;54.35;23.65;;;;;;;1.85;83.13;99999.65;126401;1094;23477;-59
2020/12/09 09:06:43;;;;;;;58.53;25.53;;;;;;;1.88;83.15;99991.34;126273;1098;23473;-58
2020/12/09 09:09:12;;;;;;;65.17;29.80;;;;;;;1.91;83.71;99995.97;126447;1098;28066;-59
2020/12/09 09:11:42;;;;;;;70.20;36.08;;;;;;;1.95;83.51;100001.39;126301;1098;27873;-53
2020/12/09 09:14:15;;;;;;;63.58;30.35;;;;;;;1.98;83.23;100001.34;126244;1098;23395;-60
2020/12/09 09:16:46;;;;;;;60.33;29.17;;;;;;;1.99;83.02;99986.35;126295;1098;23463;-57
2020/12/09 09:19:16;;;;;;;59.73;27.73;;;;;;;2.02;83.23;99990.23;125912;1100;27904;-59
2020/12/09 09:21:49;;;;;;;57.53;24.63;;;;;;;2.01;83.53;99991.42;126916;1098;23387;-58
2020/12/09 09:24:18;;;;;;;55.50;23.37;;;;;;;2.00;82.95;99990.67;125871;1098;23390;-58
2020/12/09 09:26:49;;;;;;;52.17;22.90;;;;;;;2.02;83.58;99990.23;126730;1098;23344;-58
2020/12/09 09:29:18;;;;;;;51.63;23.60;;;;;;;2.04;82.97;99994.13;126072;1098;27975;-57
2020/12/09 09:31:48;;;;;;;56.45;26.27;;;;;;;2.06;82.87;99990.94;126349;1098;23350;-58
2020/12/09 09:34:17;;;;;;;59.47;26.07;;;;;;;2.05;83.00;99990.15;126014;1098;23431;-58
2020/12/09 09:36:47;;;;;;;49.00;22.40;;;;;;;2.05;83.17;99994.91;126192;1098;23398;-56
2020/12/09 09:39:17;;;;;;;62.40;26.60;;;;;;;2.04;82.92;99994.13;126364;1098;23377;-60
2020/12/09 09:41:54;;;;;;;66.80;28.57;;;;;;;2.02;82.83;99990.23;125897;1094;29046;-60
2020/12/09 09:44:24;;;;;;;49.95;22.80;;;;;;;2.02;83.28;99996.52;130072;1099;23164;-61
2020/12/09 09:46:55;;;;;;;;;;;;;;;2.03;83.06;99989.80;130136;1099;24485;-60
2020/12/09 09:49:25;;;;;;;54.40;24.23;;;;;;;2.06;83.32;99997.22;130110;1098;21524;-59
2020/12/09 09:51:54;;;;;;;50.58;22.30;;;;;;;2.10;83.02;99995.16;130116;1099;23251;-59
2020/12/09 09:54:24;;;;;;;47.17;20.87;;;;;;;2.13;83.00;99996.29;130082;1093;23900;-60
2020/12/09 09:56:54;;;;;;;42.45;18.23;;;;;;;2.15;82.58;99996.64;130119;1098;23196;-58
2020/12/09 09:59:26;;;;;;;51.00;19.97;;;;;;;2.15;82.89;99997.39;130123;1099;23294;-60
2020/12/09 10:01:56;;;;;;;51.75;20.85;;;;;;;2.15;82.33;99997.39;130089;1098;23276;-60
2020/12/09 10:04:26;;;;;;;42.10;18.30;;;;;;;2.14;83.04;99995.86;130091;1099;23302;-60
2020/12/09 10:06:56;;;;;;;42.48;18.32;;;;;;;2.17;82.48;99996.98;130067;1093;23177;-60
2020/12/09 10:09:25;;;;;;;;;;;;;;;2.16;82.58;99995.42;130056;1099;23143;-61
2020/12/09 10:11:54;;;;;;;37.03;16.70;;;;;;;2.16;82.85;100000.92;130078;1098;21441;-60
2020/12/09 10:14:23;;;;;;;40.57;19.27;;;;;;;2.15;83.21;99991.88;130074;1100;23168;-62
2020/12/09 10:16:53;;;;;;;31.60;12.93;;;;;;;2.16;82.67;100000.92;130050;1098;23205;-62
2020/12/09 10:19:23;;;;;;;44.88;17.02;;;;;;;2.13;82.38;99999.80;130081;1099;23215;-59
2020/12/09 10:21:53;;;;;;;48.20;17.93;;;;;;;2.13;82.66;99999.80;130072;1098;23189;-59
2020/12/09 10:24:23;;;;;;;40.73;18.17;;;;;;;2.15;83.10;99996.64;130056;1099;24759;-60
2020/12/09 10:26:55;;;;;;;49.47;21.10;;;;;;;2.18;83.05;99995.77;129829;1093;24652;-56
2020/12/09 10:29:27;;;;;;;47.50;21.43;;;;;;;2.22;82.95;99993.70;129820;1093;25233;-56
2020/12/09 10:31:56;;;;;;;41.57;19.37;;;;;;;2.21;82.80;99992.95;130106;1093;23834;-55
2020/12/09 10:34:26;;;;;;;40.53;18.47;;;;;;;2.22;82.58;99991.73;130111;1093;23283;-57
2020/12/09 10:36:56;;;;;;;41.37;20.10;;;;;;;2.23;82.90;99985.03;127777;1099;23348;-57
2020/12/09 10:39:26;;;;;;;44.53;19.30;;;;;;;2.24;82.57;99994.84;126274;1099;26795;-60
2020/12/09 10:41:55;;;;;;;44.50;18.87;;;;;;;2.25;82.73;99993.64;126172;1098;27859;-56
2020/12/09 10:44:25;;;;;;;39.92;17.87;;;;;;;2.25;83.01;99995.62;126342;1099;25178;-58
2020/12/09 10:46:55;;;;;;;34.55;13.95;;;;;;;2.26;82.35;99994.39;126085;1094;23327;-57
2020/12/09 10:49:31;;;;;;;43.42;19.92;;;;;;;2.30;82.91;99986.83;126295;1099;23268;-58
2020/12/09 10:52:01;;;;;;;41.63;16.87;;;;;;;2.33;82.55;99985.98;126058;1098;23409;-58
2020/12/09 10:54:31;;;;;;;41.53;19.85;;;;;;;2.33;82.78;99977.72;126463;1099;26437;-56
2020/12/09 10:57:04;;;;;;;45.90;21.40;;;;;;;2.36;82.25;99979.59;126109;1098;23562;-60
2020/12/09 10:59:35;;;;;;;52.10;22.57;;;;;;;2.38;82.24;99975.22;126336;1098;24574;-58
2020/12/09 11:02:04;;;;;;;61.70;28.30;;;;;;;2.38;82.38;99977.97;126504;1099;23350;-59
2020/12/09 11:04:34;;;;;;;102.05;38.33;;;;;;;2.37;82.29;99976.44;125987;1094;23389;-64
2020/12/09 11:07:08;;;;;;;74.50;32.58;;;;;;;2.37;82.64;99979.19;126294;1098;25996;-60
2020/12/09 11:09:37;;;;;;;60.77;26.90;;;;;;;2.36;82.41;99971.33;126093;1099;23385;-58
2020/12/09 11:12:07;;;;;;;62.62;29.63;;;;;;;2.38;82.60;99977.97;126199;1098;23398;-61
2020/12/09 11:14:37;;;;;;;59.08;26.85;;;;;;;2.36;82.02;99985.89;126152;1098;26144;-60
2020/12/09 11:17:07;;;;;;;45.92;21.52;;;;;;;2.35;82.35;99984.35;126150;1098;23331;-60
2020/12/09 11:19:37;;;;;;;56.23;24.72;;;;;;;2.33;82.26;99972.20;126087;1098;23393;-58
2020/12/09 11:22:09;;;;;;;57.87;27.87;;;;;;;2.32;82.03;99974.18;126197;1098;27931;-59
2020/12/09 11:24:38;;;;;;;58.85;30.55;;;;;;;2.32;82.20;99965.13;126153;1098;23380;-58
2020/12/09 11:27:07;;;;;;;52.87;24.77;;;;;;;2.33;82.45;99959.22;126645;1098;23537;-56
2020/12/09 11:29:39;;;;;;;51.53;21.17;;;;;;;2.34;82.18;99957.22;126344;1098;30029;-59
2020/12/09 11:32:09;;;;;;;50.97;20.73;;;;;;;2.35;82.23;99965.07;126153;1098;24953;-61
2020/12/09 11:34:38;;;;;;;45.30;19.92;;;;;;;2.35;82.20;99958.78;126598;1098;23481;-59